Time;durP1;ratioP1;P1;durP2;ratioP2;P2;SDS_P1;SDS_P2;PMS_P1;PMS_P2;Temp;Humidity;BMP_temperature;BMP_pressure;BME280_temperature;BME280_humidity;BME280_pressure;Samples;Min_cycle;Max_cycle;Signal;HPM_P1;HPM_P2
2023/08/07 00:01:53;;;;;;;0.65;0.65;;;17.30;99.50;;;;;;5059917;28;20245;-70
2023/08/07 00:04:19;;;;;;;0.60;0.60;;;17.20;99.50;;;;;;5059812;28;20337;-70
2023/08/07 00:06:47;;;;;;;0.73;0.73;;;17.20;99.60;;;;;;5062184;28;20207;-70
2023/08/07 00:09:13;;;;;;;0.70;0.70;;;17.20;99.70;;;;;;5058158;28;20203;-70
2023/08/07 00:11:42;;;;;;;0.68;0.68;;;17.10;99.90;;;;;;5058955;28;20241;-70
2023/08/07 00:14:09;;;;;;;0.70;0.70;;;17.00;99.90;;;;;;5058961;28;20289;-70
2023/08/07 00:16:36;;;;;;;0.80;0.80;;;16.90;99.90;;;;;;5059821;28;20251;-70
2023/08/07 00:19:03;;;;;;;0.60;0.60;;;16.90;99.90;;;;;;5061760;28;20282;-70
2023/08/07 00:21:31;;;;;;;0.70;0.70;;;16.80;99.90;;;;;;5060051;28;20317;-70
2023/08/07 00:23:59;;;;;;;0.63;0.63;;;16.90;99.90;;;;;;5060974;28;20306;-70
2023/08/07 00:26:26;;;;;;;0.70;0.70;;;16.80;99.90;;;;;;5061044;28;20238;-70
2023/08/07 00:28:55;;;;;;;0.60;0.60;;;16.80;99.90;;;;;;5056044;28;20222;-70
2023/08/07 00:31:22;;;;;;;0.70;0.70;;;16.80;99.90;;;;;;5061911;28;20276;-70
2023/08/07 00:33:51;;;;;;;0.55;0.55;;;16.70;99.90;;;;;;5057974;28;20263;-70
2023/08/07 00:36:18;;;;;;;0.70;0.70;;;16.80;99.90;;;;;;5059522;28;20286;-70
2023/08/07 00:38:45;;;;;;;0.60;0.60;;;16.80;99.90;;;;;;5051922;28;20199;-70
2023/08/07 00:41:12;;;;;;;0.77;0.77;;;16.70;99.90;;;;;;5058544;28;20301;-70
2023/08/07 00:43:39;;;;;;;0.68;0.68;;;16.70;99.90;;;;;;5058011;28;20270;-70
2023/08/07 00:46:08;;;;;;;0.68;0.68;;;16.70;99.90;;;;;;5057976;28;20282;-70
2023/08/07 00:48:35;;;;;;;0.90;0.90;;;16.70;99.90;;;;;;5058630;28;20285;-70
2023/08/07 00:51:03;;;;;;;0.75;0.75;;;16.70;99.90;;;;;;5057204;28;20641;-70
2023/08/07 00:53:30;;;;;;;0.70;0.70;;;16.70;99.90;;;;;;5062451;28;20198;-70
2023/08/07 00:55:57;;;;;;;0.75;0.75;;;16.60;99.90;;;;;;5058661;28;20203;-70
2023/08/07 00:58:24;;;;;;;0.77;0.77;;;16.50;99.90;;;;;;5057657;28;20286;-70
2023/08/07 01:00:51;;;;;;;0.70;0.70;;;16.40;99.90;;;;;;5055501;28;20259;-70
2023/08/07 01:03:20;;;;;;;0.80;0.80;;;16.30;99.90;;;;;;5051512;28;20230;-70
2023/08/07 01:05:47;;;;;;;0.80;0.80;;;16.20;99.90;;;;;;5058776;28;20302;-70
2023/08/07 01:08:14;;;;;;;0.63;0.63;;;16.10;99.90;;;;;;5059485;28;20276;-70
2023/08/07 01:11:06;;;;;;;0.80;0.80;;;16.10;99.90;;;;;;5056194;28;20293;-71
2023/08/07 01:13:38;;;;;;;0.80;0.80;;;16.10;99.90;;;;;;5056299;28;20244;-70
2023/08/07 01:16:14;;;;;;;0.90;0.90;;;16.00;99.90;;;;;;5052109;28;20199;-70
2023/08/07 01:18:45;;;;;;;0.80;0.80;;;15.90;99.90;;;;;;5057606;28;20206;-70
2023/08/07 01:21:18;;;;;;;0.80;0.80;;;15.90;99.90;;;;;;5058814;28;20738;-70
2023/08/07 01:23:47;;;;;;;1.55;0.73;;;15.90;99.90;;;;;;5057820;28;20221;-70
2023/08/07 01:26:15;;;;;;;1.10;0.60;;;15.90;99.90;;;;;;5057235;28;20199;-70
2023/08/07 01:28:47;;;;;;;0.73;0.73;;;15.90;99.90;;;;;;5053379;28;20737;-69
2023/08/07 01:31:17;;;;;;;0.70;0.70;;;15.90;99.90;;;;;;5053535;28;20354;-70
2023/08/07 01:33:52;;;;;;;0.88;0.88;;;15.80;99.90;;;;;;5057373;28;20233;-70
2023/08/07 01:36:20;;;;;;;0.70;0.70;;;15.80;99.90;;;;;;5055370;28;20215;-70
2023/08/07 01:38:51;;;;;;;0.65;0.65;;;15.70;99.90;;;;;;5054332;28;20206;-70
2023/08/07 01:41:19;;;;;;;0.90;0.90;;;15.70;99.90;;;;;;5057465;28;20317;-70
2023/08/07 01:43:46;;;;;;;0.70;0.70;;;15.70;99.90;;;;;;5057885;28;20283;-70
2023/08/07 01:46:13;;;;;;;0.60;0.60;;;15.60;99.90;;;;;;5056459;28;20762;-70
2023/08/07 01:48:40;;;;;;;0.90;0.75;;;15.60;99.90;;;;;;5062311;28;20206;-70
2023/08/07 01:51:07;;;;;;;0.70;0.70;;;15.50;99.90;;;;;;5051365;28;20234;-70
2023/08/07 01:53:34;;;;;;;0.70;0.70;;;15.50;99.90;;;;;;5058551;28;20226;-70
2023/08/07 01:56:03;;;;;;;1.00;1.00;;;15.40;99.90;;;;;;5056968;28;20199;-70
2023/08/07 01:58:30;;;;;;;0.90;0.90;;;15.40;99.90;;;;;;5057069;28;20195;-69
2023/08/07 02:00:57;;;;;;;0.73;0.73;;;15.30;99.90;;;;;;5049878;28;20199;-70
2023/08/07 02:03:24;;;;;;;0.70;0.70;;;15.30;99.90;;;;;;5054228;28;20226;-69
2023/08/07 02:05:51;;;;;;;0.70;0.70;;;15.20;99.90;;;;;;5059054;28;20268;-70
2023/08/07 02:08:18;;;;;;;0.70;0.70;;;15.20;99.90;;;;;;5058412;28;20289;-69
2023/08/07 02:10:45;;;;;;;0.70;0.70;;;15.20;99.90;;;;;;5059320;28;20241;-69
2023/08/07 02:13:13;;;;;;;0.68;0.68;;;15.20;99.90;;;;;;5055663;28;20264;-69
2023/08/07 02:15:40;;;;;;;0.90;0.90;;;15.20;99.90;;;;;;5050743;28;20293;-70
2023/08/07 02:18:07;;;;;;;0.70;0.70;;;15.20;99.90;;;;;;5059411;28;20233;-70
2023/08/07 02:20:34;;;;;;;0.65;0.65;;;15.10;99.90;;;;;;5056575;28;20246;-70
2023/08/07 02:23:01;;;;;;;0.80;0.80;;;15.10;99.90;;;;;;5056518;28;20312;-69
2023/08/07 02:25:28;;;;;;;0.70;0.70;;;15.00;99.90;;;;;;5054241;28;20236;-69
2023/08/07 02:27:55;;;;;;;0.60;0.60;;;15.00;99.90;;;;;;5053062;28;20211;-69
2023/08/07 02:30:23;;;;;;;0.85;0.70;;;15.00;99.90;;;;;;5058524;28;20773;-70
2023/08/07 02:32:50;;;;;;;0.70;0.70;;;14.90;99.90;;;;;;5056425;28;20715;-69
2023/08/07 02:35:17;;;;;;;0.68;0.68;;;14.90;99.90;;;;;;5055328;28;20210;-71
2023/08/07 02:37:45;;;;;;;0.70;0.70;;;14.90;99.90;;;;;;5053062;28;20234;-71
2023/08/07 02:40:15;;;;;;;0.80;0.80;;;14.80;99.90;;;;;;5054778;28;20294;-70
2023/08/07 02:42:42;;;;;;;0.70;0.70;;;14.80;99.90;;;;;;5054905;28;20215;-70
2023/08/07 02:45:10;;;;;;;0.80;0.80;;;14.70;99.90;;;;;;5055044;28;20582;-70
2023/08/07 02:47:38;;;;;;;0.80;0.80;;;14.60;99.90;;;;;;5054029;28;20771;-71
2023/08/07 02:50:06;;;;;;;0.70;0.70;;;14.50;99.90;;;;;;5052771;28;20230;-70
2023/08/07 02:52:33;;;;;;;0.70;0.70;;;14.50;99.90;;;;;;5058819;28;20694;-70
2023/08/07 02:55:00;;;;;;;0.85;0.85;;;14.50;99.90;;;;;;5061120;28;20222;-70
2023/08/07 02:57:27;;;;;;;0.80;0.80;;;14.50;99.90;;;;;;5059736;28;20240;-70
2023/08/07 02:59:54;;;;;;;0.80;0.80;;;14.50;99.90;;;;;;5060175;28;20958;-70
2023/08/07 03:02:21;;;;;;;0.80;0.80;;;14.50;99.90;;;;;;5058846;28;20305;-70
2023/08/07 03:04:49;;;;;;;0.63;0.63;;;14.50;99.90;;;;;;5059120;28;20285;-70
2023/08/07 03:07:16;;;;;;;0.88;0.88;;;14.50;99.90;;;;;;5062076;28;20742;-70
2023/08/07 03:09:46;;;;;;;0.70;0.70;;;14.50;99.90;;;;;;5061403;28;20296;-69
2023/08/07 03:12:13;;;;;;;0.80;0.80;;;14.50;99.90;;;;;;5054177;28;20780;-69
2023/08/07 03:14:40;;;;;;;0.80;0.80;;;14.50;99.90;;;;;;5057164;28;20230;-70
2023/08/07 03:17:07;;;;;;;0.75;0.75;;;14.40;99.90;;;;;;5058433;28;20290;-70
2023/08/07 03:19:34;;;;;;;0.80;0.80;;;14.30;99.90;;;;;;5056900;28;20325;-70
2023/08/07 03:22:03;;;;;;;0.77;0.73;;;14.30;99.90;;;;;;5058066;28;20226;-70
2023/08/07 03:24:30;;;;;;;0.90;0.90;;;14.30;99.90;;;;;;5058053;28;20215;-70
2023/08/07 03:26:57;;;;;;;0.85;0.85;;;14.20;99.90;;;;;;5063124;28;20237;-70
2023/08/07 03:29:24;;;;;;;0.77;0.77;;;14.20;99.90;;;;;;5056010;28;20198;-70
2023/08/07 03:31:51;;;;;;;1.00;1.00;;;14.10;99.90;;;;;;5057718;28;20275;-70
2023/08/07 03:34:18;;;;;;;0.90;0.90;;;14.10;99.90;;;;;;5058917;28;20237;-70
2023/08/07 03:36:46;;;;;;;0.80;0.80;;;14.10;99.90;;;;;;5057333;28;20206;-71
2023/08/07 03:39:14;;;;;;;0.88;0.88;;;14.10;99.90;;;;;;5064048;28;20872;-70
2023/08/07 03:41:41;;;;;;;0.85;0.85;;;14.10;99.90;;;;;;5072841;28;20739;-70
2023/08/07 03:44:08;;;;;;;0.80;0.80;;;14.10;99.90;;;;;;5059286;28;20228;-70
2023/08/07 03:46:35;;;;;;;0.70;0.70;;;13.90;99.90;;;;;;5059555;28;20935;-70
2023/08/07 03:49:02;;;;;;;0.77;0.77;;;14.00;99.90;;;;;;5058373;28;20222;-70
2023/08/07 03:51:32;;;;;;;0.80;0.80;;;13.90;99.90;;;;;;5055652;28;20798;-70
2023/08/07 03:53:59;;;;;;;0.90;0.90;;;13.90;99.90;;;;;;5062797;28;20206;-70
2023/08/07 03:56:27;;;;;;;1.45;0.90;;;13.90;99.90;;;;;;5059545;28;20285;-70
2023/08/07 03:58:54;;;;;;;1.63;0.80;;;14.00;99.90;;;;;;5061009;28;20199;-70
2023/08/07 04:01:21;;;;;;;0.70;0.70;;;14.00;99.90;;;;;;5059408;28;20955;-70
2023/08/07 04:03:49;;;;;;;0.80;0.80;;;14.10;99.90;;;;;;5059393;28;20211;-70
2023/08/07 04:06:16;;;;;;;0.90;0.90;;;14.10;99.90;;;;;;5059048;28;20198;-70
2023/08/07 04:08:43;;;;;;;1.08;1.02;;;14.10;99.90;;;;;;5058065;28;20217;-70
2023/08/07 04:11:10;;;;;;;0.60;0.60;;;14.10;99.90;;;;;;5057625;28;20711;-70
2023/08/07 04:13:39;;;;;;;1.83;1.10;;;14.10;99.90;;;;;;5059403;28;20196;-70
2023/08/07 04:16:06;;;;;;;1.10;1.00;;;14.10;99.90;;;;;;5056987;28;20774;-70
2023/08/07 04:18:33;;;;;;;0.90;0.90;;;14.00;99.90;;;;;;5062120;28;20225;-70
2023/08/07 04:21:00;;;;;;;1.30;0.98;;;14.00;99.90;;;;;;5056855;28;20230;-70
2023/08/07 04:23:27;;;;;;;1.00;1.00;;;14.10;99.90;;;;;;5061879;28;20224;-70
2023/08/07 04:25:54;;;;;;;0.90;0.90;;;14.00;99.90;;;;;;5062504;28;20292;-70
2023/08/07 04:28:22;;;;;;;0.90;0.90;;;14.00;99.90;;;;;;5057703;28;20206;-70
2023/08/07 04:30:53;;;;;;;0.90;0.90;;;14.00;99.90;;;;;;5064224;28;20241;-70
2023/08/07 04:33:20;;;;;;;1.02;1.02;;;14.00;99.90;;;;;;5063620;28;20199;-70
2023/08/07 04:35:47;;;;;;;0.80;0.80;;;14.10;99.90;;;;;;5057098;28;20284;-70
2023/08/07 04:38:14;;;;;;;0.80;0.80;;;14.10;99.90;;;;;;5056614;28;20199;-70
2023/08/07 04:40:46;;;;;;;0.90;0.90;;;14.20;99.90;;;;;;5059135;28;20285;-70
2023/08/07 04:43:13;;;;;;;1.00;1.00;;;14.20;99.90;;;;;;5059439;28;20223;-70
2023/08/07 04:45:40;;;;;;;1.10;1.10;;;14.30;99.90;;;;;;5055660;28;20621;-70
2023/08/07 04:48:08;;;;;;;1.08;1.08;;;14.40;99.90;;;;;;5060275;28;20285;-70
2023/08/07 04:50:36;;;;;;;1.00;1.00;;;14.50;99.90;;;;;;5058079;28;20237;-71
2023/08/07 04:53:03;;;;;;;0.90;0.90;;;14.60;99.90;;;;;;5056077;28;20243;-71
2023/08/07 04:55:30;;;;;;;0.80;0.80;;;14.70;99.90;;;;;;5056412;28;20567;-71
2023/08/07 04:57:57;;;;;;;1.02;1.02;;;14.70;99.90;;;;;;5055446;28;20305;-71
2023/08/07 05:00:24;;;;;;;0.88;0.88;;;14.80;99.90;;;;;;5057066;28;20207;-71
2023/08/07 05:02:51;;;;;;;1.00;1.00;;;15.00;99.90;;;;;;5058292;28;20218;-72
2023/08/07 05:05:20;;;;;;;0.80;0.80;;;15.20;99.90;;;;;;5056269;28;20204;-72
2023/08/07 05:07:48;;;;;;;0.90;0.90;;;15.40;99.90;;;;;;5057134;28;20218;-72
2023/08/07 05:10:15;;;;;;;0.82;0.82;;;15.40;99.90;;;;;;5054257;28;20199;-71
2023/08/07 05:12:42;;;;;;;0.90;0.90;;;15.60;99.90;;;;;;5059831;28;20311;-71
2023/08/07 05:15:09;;;;;;;0.80;0.80;;;15.70;99.90;;;;;;5055917;28;20332;-71
2023/08/07 05:17:37;;;;;;;0.77;0.77;;;15.90;99.90;;;;;;5058060;28;20207;-71
2023/08/07 05:20:05;;;;;;;0.90;0.90;;;16.20;99.90;;;;;;5055001;28;20199;-71
2023/08/07 05:22:33;;;;;;;0.93;0.93;;;16.30;99.90;;;;;;5060499;28;20238;-71
2023/08/07 05:25:00;;;;;;;2.20;1.13;;;16.30;99.90;;;;;;5057464;28;20218;-71
2023/08/07 05:27:29;;;;;;;0.70;0.70;;;16.30;99.90;;;;;;5060991;28;20293;-71
2023/08/07 05:29:56;;;;;;;0.80;0.80;;;16.40;99.90;;;;;;5051201;28;20191;-71
2023/08/07 05:32:23;;;;;;;0.90;0.90;;;16.50;99.90;;;;;;5058848;28;20301;-71
2023/08/07 05:34:50;;;;;;;0.80;0.80;;;16.50;99.90;;;;;;5054565;28;20664;-71
2023/08/07 05:37:17;;;;;;;0.80;0.77;;;16.60;99.90;;;;;;5055782;28;20285;-71
2023/08/07 05:39:46;;;;;;;0.80;0.80;;;16.80;99.90;;;;;;5057733;28;20347;-71
2023/08/07 05:42:13;;;;;;;1.00;0.90;;;16.80;99.90;;;;;;5055321;28;20750;-71
2023/08/07 05:44:39;;;;;;;0.70;0.70;;;16.90;99.90;;;;;;5056168;28;20218;-72
2023/08/07 05:47:07;;;;;;;1.00;0.85;;;17.10;99.90;;;;;;5054856;28;20230;-71
2023/08/07 05:49:34;;;;;;;0.80;0.80;;;17.30;99.90;;;;;;5055617;28;20279;-70
2023/08/07 05:52:01;;;;;;;0.80;0.80;;;17.60;99.90;;;;;;5051269;28;20254;-70
2023/08/07 05:54:28;;;;;;;1.15;1.05;;;17.80;99.90;;;;;;5053525;28;20286;-70
2023/08/07 05:56:57;;;;;;;0.80;0.80;;;17.90;99.90;;;;;;5055760;28;20249;-70
2023/08/07 05:59:24;;;;;;;2.15;0.93;;;17.80;99.90;;;;;;5055147;28;20235;-70
2023/08/07 06:01:52;;;;;;;1.33;1.08;;;17.70;99.90;;;;;;5051787;28;20301;-70
2023/08/07 06:04:19;;;;;;;1.00;0.90;;;17.40;99.90;;;;;;5051283;28;21465;-70
2023/08/07 06:06:46;;;;;;;1.58;0.90;;;17.40;99.90;;;;;;5054591;28;20202;-70
2023/08/07 06:09:15;;;;;;;0.80;0.80;;;17.90;99.90;;;;;;5059154;28;20239;-70
2023/08/07 06:11:42;;;;;;;1.00;1.00;;;18.20;99.90;;;;;;5055835;28;20249;-70
2023/08/07 06:14:10;;;;;;;0.95;0.90;;;18.10;99.90;;;;;;5053021;28;20191;-70
2023/08/07 06:16:37;;;;;;;1.55;0.80;;;18.00;99.90;;;;;;5054701;28;20226;-70
2023/08/07 06:19:04;;;;;;;0.90;0.90;;;17.80;99.90;;;;;;5052314;28;20344;-70
2023/08/07 06:21:31;;;;;;;1.75;0.93;;;17.70;99.90;;;;;;5052898;28;20340;-70
2023/08/07 06:23:58;;;;;;;1.00;0.80;;;17.90;99.90;;;;;;5049615;28;20313;-70
2023/08/07 06:26:25;;;;;;;1.10;1.00;;;18.00;99.90;;;;;;5057266;28;20272;-70
2023/08/07 06:28:52;;;;;;;1.50;1.02;;;18.00;99.90;;;;;;5058713;28;20194;-70
2023/08/07 06:31:20;;;;;;;2.75;0.68;;;18.20;99.90;;;;;;5059440;28;20222;-70
2023/08/07 06:33:47;;;;;;;0.80;0.80;;;18.20;99.90;;;;;;5058626;28;20233;-70
2023/08/07 06:36:14;;;;;;;0.80;0.80;;;18.10;99.90;;;;;;5059952;28;20279;-70
2023/08/07 06:38:41;;;;;;;0.85;0.85;;;18.20;99.90;;;;;;5057721;28;20222;-70
2023/08/07 06:41:10;;;;;;;0.70;0.70;;;18.30;99.90;;;;;;5057146;28;20224;-70
2023/08/07 06:43:36;;;;;;;0.95;0.90;;;18.50;99.90;;;;;;5059900;28;20198;-71
2023/08/07 06:46:03;;;;;;;2.25;1.00;;;18.60;99.90;;;;;;5054446;28;20202;-71
2023/08/07 06:48:32;;;;;;;0.90;0.90;;;18.90;99.90;;;;;;5060233;28;20256;-71
2023/08/07 06:50:59;;;;;;;2.05;0.90;;;19.10;99.90;;;;;;5059030;28;20232;-71
2023/08/07 06:53:27;;;;;;;0.80;0.80;;;19.10;99.90;;;;;;5060072;28;20195;-70
2023/08/07 06:55:54;;;;;;;0.70;0.70;;;19.30;99.90;;;;;;5056378;28;21222;-70
2023/08/07 06:58:21;;;;;;;1.85;0.80;;;19.30;99.90;;;;;;5058372;28;20580;-70
2023/08/07 07:00:48;;;;;;;2.20;0.82;;;19.40;99.90;;;;;;5055882;28;20241;-70
2023/08/07 07:03:15;;;;;;;1.45;1.05;;;19.30;99.90;;;;;;5057312;28;20253;-70
2023/08/07 07:05:43;;;;;;;0.90;0.90;;;19.30;99.90;;;;;;5053136;28;20312;-70
2023/08/07 07:08:10;;;;;;;1.05;0.95;;;19.40;99.90;;;;;;5056477;28;20201;-70
2023/08/07 07:14:22;;;;;;;3.10;1.30;;;19.20;99.90;;;;;;5067052;27;20815;-73
2023/08/07 07:16:49;;;;;;;1.27;0.98;;;19.40;99.90;;;;;;5067514;28;20201;-73
2023/08/07 07:19:16;;;;;;;3.97;1.15;;;19.50;99.90;;;;;;5070619;28;20293;-74
2023/08/07 07:21:43;;;;;;;3.80;1.02;;;19.70;99.90;;;;;;5070586;28;20206;-74
2023/08/07 07:24:10;;;;;;;1.58;0.80;;;19.60;99.90;;;;;;5070846;28;20213;-73
2023/08/07 07:26:37;;;;;;;1.02;0.95;;;19.80;99.90;;;;;;5073317;28;20226;-74
2023/08/07 07:29:04;;;;;;;1.10;1.10;;;19.90;99.90;;;;;;5072241;28;20190;-73
2023/08/07 07:31:32;;;;;;;1.60;1.00;;;20.00;99.90;;;;;;5068762;28;20280;-73
2023/08/07 07:33:59;;;;;;;0.85;0.85;;;19.90;99.90;;;;;;5066881;28;20217;-74
2023/08/07 07:36:26;;;;;;;0.73;0.73;;;19.90;99.90;;;;;;5071255;28;20207;-70
2023/08/07 07:38:53;;;;;;;1.55;1.00;;;20.10;99.90;;;;;;5076430;28;20280;-70
2023/08/07 07:41:20;;;;;;;0.70;0.70;;;20.30;99.90;;;;;;5090069;28;20205;-73
2023/08/07 07:43:48;;;;;;;0.75;0.75;;;20.50;99.90;;;;;;5090409;28;20929;-70
2023/08/07 07:46:15;;;;;;;1.13;1.00;;;20.60;99.90;;;;;;5073259;28;21597;-72
2023/08/07 07:48:43;;;;;;;1.75;1.05;;;20.60;99.90;;;;;;5070662;28;20217;-71
2023/08/07 07:51:10;;;;;;;1.13;0.93;;;20.70;99.90;;;;;;5074880;28;20739;-71
2023/08/07 07:53:37;;;;;;;3.08;0.80;;;20.60;99.90;;;;;;5068771;28;20312;-72
2023/08/07 07:56:04;;;;;;;1.60;0.88;;;20.50;99.90;;;;;;5071174;28;20197;-71
2023/08/07 07:58:31;;;;;;;0.80;0.80;;;20.70;99.90;;;;;;5072354;28;20296;-71
2023/08/07 08:00:58;;;;;;;1.38;1.00;;;21.00;99.90;;;;;;5073508;28;20285;-73
2023/08/07 08:03:25;;;;;;;0.90;0.90;;;21.00;99.90;;;;;;5071931;28;20222;-73
2023/08/07 08:05:53;;;;;;;0.80;0.80;;;21.00;99.90;;;;;;5076090;28;20636;-73
2023/08/07 08:08:21;;;;;;;2.95;1.00;;;21.10;99.90;;;;;;5072659;28;20233;-73
2023/08/07 08:10:50;;;;;;;1.00;0.90;;;21.30;99.90;;;;;;5064238;28;20222;-73
2023/08/07 08:13:18;;;;;;;2.25;0.93;;;21.50;99.90;;;;;;5071640;28;20228;-73
2023/08/07 08:15:46;;;;;;;1.10;1.00;;;21.70;99.90;;;;;;5072875;28;20247;-73
2023/08/07 08:18:13;;;;;;;0.90;0.90;;;21.80;99.90;;;;;;5077165;28;20197;-73
2023/08/07 08:20:40;;;;;;;0.85;0.85;;;21.80;99.90;;;;;;5069002;28;20197;-73
2023/08/07 08:23:08;;;;;;;0.85;0.85;;;22.10;99.90;;;;;;5073275;28;20309;-73
2023/08/07 08:25:35;;;;;;;0.80;0.80;;;21.90;99.90;;;;;;5060211;28;20226;-73
2023/08/07 08:28:02;;;;;;;1.13;0.80;;;21.90;99.90;;;;;;5058140;28;20206;-73
2023/08/07 08:30:29;;;;;;;0.80;0.80;;;21.90;99.90;;;;;;5055808;28;20290;-72
2023/08/07 08:32:56;;;;;;;0.98;0.95;;;21.80;99.90;;;;;;5051231;28;20229;-71
2023/08/07 08:35:23;;;;;;;0.80;0.80;;;21.80;99.90;;;;;;5056403;28;20896;-70
2023/08/07 08:37:50;;;;;;;1.90;1.23;;;22.00;99.90;;;;;;5056178;28;20206;-72
2023/08/07 08:40:19;;;;;;;1.10;0.98;;;22.00;99.90;;;;;;5048575;28;20220;-70
2023/08/07 08:42:47;;;;;;;0.88;0.88;;;22.10;99.90;;;;;;5059090;28;20696;-70
2023/08/07 08:45:15;;;;;;;0.88;0.88;;;22.10;99.90;;;;;;5061680;28;20281;-71
2023/08/07 08:47:44;;;;;;;0.93;0.80;;;22.10;99.90;;;;;;5057930;28;20252;-70
2023/08/07 08:50:12;;;;;;;0.90;0.90;;;22.10;99.90;;;;;;5057350;28;20810;-71
2023/08/07 08:52:41;;;;;;;0.80;0.80;;;22.30;99.90;;;;;;5060092;28;20233;-71
2023/08/07 08:55:09;;;;;;;1.00;0.90;;;22.20;99.90;;;;;;5056580;28;20235;-71
2023/08/07 08:57:39;;;;;;;1.48;0.60;;;22.30;99.90;;;;;;5060053;28;20202;-70
2023/08/07 09:00:17;;;;;;;0.80;0.80;;;22.50;99.90;;;;;;5060964;28;20194;-70
2023/08/07 09:02:45;;;;;;;0.80;0.80;;;22.70;99.90;;;;;;5057525;28;20673;-69
2023/08/07 09:05:12;;;;;;;0.98;0.90;;;23.20;99.90;;;;;;5057868;28;20210;-71
2023/08/07 09:07:39;;;;;;;0.70;0.70;;;23.40;99.90;;;;;;5054059;28;20724;-72
2023/08/07 09:10:07;;;;;;;0.70;0.70;;;23.70;99.90;;;;;;5059383;28;20664;-71
2023/08/07 09:12:34;;;;;;;0.70;0.70;;;24.00;99.90;;;;;;5056639;28;20212;-70
2023/08/07 09:15:04;;;;;;;0.60;0.60;;;24.30;99.60;;;;;;5057604;28;20285;-71
2023/08/07 09:17:37;;;;;;;0.63;0.63;;;24.50;99.90;;;;;;5056085;28;20218;-71
2023/08/07 09:20:06;;;;;;;0.52;0.52;;;24.60;98.30;;;;;;5054928;28;21085;-70
2023/08/07 09:22:33;;;;;;;0.80;0.80;;;24.70;98.80;;;;;;5060377;28;20722;-70
2023/08/07 09:25:00;;;;;;;0.65;0.65;;;25.00;99.60;;;;;;5059719;28;21925;-71
2023/08/07 09:27:27;;;;;;;0.50;0.50;;;25.10;96.60;;;;;;5053508;28;20248;-71
2023/08/07 09:29:56;;;;;;;2.60;0.70;;;25.10;96.40;;;;;;5055702;28;20202;-70
2023/08/07 09:32:25;;;;;;;0.50;0.50;;;25.40;97.50;;;;;;5055647;28;20293;-71
2023/08/07 09:34:52;;;;;;;0.55;0.55;;;25.50;97.80;;;;;;5056841;28;20943;-72
2023/08/07 09:37:19;;;;;;;0.82;0.60;;;25.60;96.30;;;;;;5058056;28;20236;-71
2023/08/07 09:39:48;;;;;;;0.65;0.65;;;25.40;93.60;;;;;;5083459;28;20201;-73
2023/08/07 09:42:15;;;;;;;0.70;0.70;;;24.90;94.50;;;;;;5064473;28;20297;-71
2023/08/07 09:44:43;;;;;;;0.68;0.60;;;24.90;95.60;;;;;;5058216;28;20246;-74
2023/08/07 09:47:14;;;;;;;0.75;0.70;;;24.90;94.30;;;;;;5056799;28;20797;-71
2023/08/07 09:49:43;;;;;;;0.70;0.70;;;25.00;92.30;;;;;;5056583;28;20273;-71
2023/08/07 09:52:13;;;;;;;1.27;0.63;;;24.80;93.30;;;;;;5053034;28;20229;-71
2023/08/07 09:54:40;;;;;;;0.70;0.70;;;24.90;95.50;;;;;;5055352;28;20222;-72
2023/08/07 09:57:07;;;;;;;1.48;0.70;;;25.00;95.40;;;;;;5052509;28;20222;-71
2023/08/07 09:59:35;;;;;;;0.60;0.60;;;25.20;92.10;;;;;;5056283;28;20892;-71
2023/08/07 10:02:03;;;;;;;0.60;0.60;;;25.00;92.90;;;;;;5053987;28;20224;-71
2023/08/07 10:04:30;;;;;;;1.52;0.70;;;25.20;92.70;;;;;;5055818;28;20304;-72
2023/08/07 10:06:58;;;;;;;0.55;0.55;;;25.30;92.10;;;;;;5056882;28;20190;-71
2023/08/07 10:09:27;;;;;;;0.60;0.60;;;25.50;93.40;;;;;;5060636;28;20855;-73
2023/08/07 10:11:55;;;;;;;0.50;0.50;;;25.60;92.00;;;;;;5055341;28;20206;-71
2023/08/07 10:14:23;;;;;;;0.80;0.80;;;25.40;90.40;;;;;;5057772;28;20811;-71
2023/08/07 10:16:51;;;;;;;1.30;0.70;;;25.40;90.50;;;;;;5055028;28;20229;-72
2023/08/07 10:19:18;;;;;;;0.80;0.60;;;25.20;89.40;;;;;;5055161;28;20233;-71
2023/08/07 10:21:47;;;;;;;0.75;0.75;;;25.10;90.30;;;;;;5056130;28;20255;-73
2023/08/07 10:24:17;;;;;;;0.60;0.60;;;25.30;92.00;;;;;;5054329;28;20335;-72
2023/08/07 10:26:46;;;;;;;0.60;0.60;;;25.30;90.10;;;;;;5061125;28;20234;-72
2023/08/07 10:29:18;;;;;;;1.00;0.60;;;25.40;88.70;;;;;;5060734;28;20236;-73
2023/08/07 10:31:46;;;;;;;0.60;0.60;;;25.00;85.90;;;;;;5059714;28;20198;-72
2023/08/07 10:34:13;;;;;;;1.08;0.60;;;25.00;88.80;;;;;;5059682;28;20237;-72
2023/08/07 10:36:41;;;;;;;0.65;0.65;;;25.10;89.70;;;;;;5055758;28;20289;-72
2023/08/07 10:39:09;;;;;;;0.70;0.70;;;25.20;86.90;;;;;;5057938;28;21025;-71
2023/08/07 10:41:42;;;;;;;1.00;0.95;;;25.40;88.80;;;;;;5059494;28;20230;-74
2023/08/07 10:44:20;;;;;;;0.70;0.70;;;25.30;84.10;;;;;;5060486;28;20269;-73
2023/08/07 10:46:51;;;;;;;0.77;0.77;;;25.20;83.30;;;;;;5056370;28;20760;-73
2023/08/07 10:49:32;;;;;;;0.55;0.55;;;25.20;85.10;;;;;;5054671;28;20235;-72
2023/08/07 10:52:00;;;;;;;0.88;0.70;;;25.50;87.10;;;;;;5057444;28;20204;-73
2023/08/07 10:54:27;;;;;;;0.70;0.70;;;25.50;85.40;;;;;;5053813;28;20275;-73
2023/08/07 10:56:56;;;;;;;0.68;0.68;;;25.80;88.00;;;;;;5054914;28;20221;-72
2023/08/07 10:59:22;;;;;;;0.73;0.70;;;25.80;82.40;;;;;;5057347;28;20286;-72
2023/08/07 11:01:55;;;;;;;0.63;0.60;;;25.90;83.00;;;;;;5053487;28;20289;-73
2023/08/07 11:04:25;;;;;;;0.65;0.65;;;26.00;85.40;;;;;;5055854;28;20641;-73
2023/08/07 11:06:53;;;;;;;0.70;0.70;;;26.10;87.90;;;;;;5054973;28;20864;-72
2023/08/07 11:09:19;;;;;;;0.60;0.60;;;26.00;88.20;;;;;;5055893;28;20223;-70
2023/08/07 11:11:48;;;;;;;0.60;0.60;;;26.20;87.10;;;;;;5053820;28;20199;-70
2023/08/07 11:14:18;;;;;;;0.60;0.60;;;26.40;85.30;;;;;;5054127;28;20245;-71
2023/08/07 11:16:47;;;;;;;0.63;0.63;;;26.10;87.10;;;;;;5051652;28;20724;-71
2023/08/07 11:19:15;;;;;;;0.80;0.80;;;26.20;85.40;;;;;;5055005;28;20286;-70
2023/08/07 11:21:43;;;;;;;0.70;0.70;;;26.30;85.30;;;;;;5055995;28;20229;-72
2023/08/07 11:24:13;;;;;;;0.60;0.60;;;26.30;86.90;;;;;;5056920;28;20226;-70
2023/08/07 11:26:40;;;;;;;0.50;0.50;;;26.30;88.30;;;;;;5054584;28;20218;-72
2023/08/07 11:29:09;;;;;;;0.50;0.50;;;26.30;86.20;;;;;;5051574;28;20837;-71
2023/08/07 11:31:37;;;;;;;0.50;0.50;;;26.20;87.60;;;;;;5057432;28;20202;-71
2023/08/07 11:34:04;;;;;;;1.10;0.80;;;26.40;84.40;;;;;;5056553;28;21121;-71
2023/08/07 11:36:33;;;;;;;0.70;0.70;;;26.50;84.20;;;;;;5081044;28;20198;-72
2023/08/07 11:39:00;;;;;;;0.50;0.50;;;26.60;81.70;;;;;;5063909;28;20914;-70
2023/08/07 11:41:28;;;;;;;0.68;0.68;;;26.80;82.60;;;;;;5055596;28;20945;-71
2023/08/07 11:43:54;;;;;;;0.70;0.70;;;26.80;82.30;;;;;;5055844;28;20214;-71
2023/08/07 11:46:22;;;;;;;0.60;0.60;;;26.80;80.80;;;;;;5056142;28;20887;-71
2023/08/07 11:48:54;;;;;;;0.50;0.50;;;26.70;81.40;;;;;;5055031;28;20213;-71
2023/08/07 11:51:21;;;;;;;1.25;0.85;;;26.20;77.20;;;;;;5059267;28;20197;-71
2023/08/07 11:53:49;;;;;;;1.33;0.70;;;26.00;77.20;;;;;;5056015;28;20717;-71
2023/08/07 11:56:16;;;;;;;0.80;0.73;;;26.00;72.30;;;;;;5056268;28;20787;-71
2023/08/07 11:58:45;;;;;;;0.65;0.65;;;25.90;73.70;;;;;;5056571;28;20202;-71
2023/08/07 12:01:14;;;;;;;0.98;0.70;;;25.90;73.60;;;;;;5058464;28;20199;-70
2023/08/07 12:03:43;;;;;;;0.70;0.70;;;25.70;71.80;;;;;;5060048;28;20219;-71
2023/08/07 12:06:11;;;;;;;0.77;0.77;;;25.60;71.40;;;;;;5053190;28;20308;-72
2023/08/07 12:08:40;;;;;;;0.63;0.63;;;25.20;72.80;;;;;;5057253;28;20206;-72
2023/08/07 12:11:10;;;;;;;0.73;0.73;;;25.00;69.50;;;;;;5058995;28;20282;-71
2023/08/07 12:13:38;;;;;;;0.60;0.60;;;25.20;79.00;;;;;;5060070;28;20305;-72
2023/08/07 12:16:06;;;;;;;0.90;0.90;;;25.00;77.80;;;;;;5058939;28;20536;-71
2023/08/07 12:18:33;;;;;;;0.80;0.80;;;25.10;79.40;;;;;;5060650;28;20199;-72
2023/08/07 12:21:01;;;;;;;1.33;0.70;;;25.70;82.30;;;;;;5061615;28;20807;-72
2023/08/07 12:23:30;;;;;;;1.55;0.70;;;26.40;84.00;;;;;;5059296;28;20230;-73
2023/08/07 12:25:57;;;;;;;0.50;0.50;;;26.70;80.80;;;;;;5056538;28;20560;-73
2023/08/07 12:28:24;;;;;;;0.68;0.68;;;26.70;81.00;;;;;;5056771;28;20247;-71
2023/08/07 12:30:52;;;;;;;0.70;0.70;;;26.90;81.90;;;;;;5056327;28;20198;-72
2023/08/07 12:33:19;;;;;;;0.60;0.60;;;27.00;80.00;;;;;;5057471;28;20293;-73
2023/08/07 12:35:46;;;;;;;0.70;0.70;;;26.80;75.50;;;;;;5057052;28;20251;-72
2023/08/07 12:38:14;;;;;;;0.73;0.70;;;26.80;79.00;;;;;;5060803;28;20651;-71
2023/08/07 12:40:43;;;;;;;0.70;0.70;;;27.00;77.90;;;;;;5059304;28;20478;-72
2023/08/07 12:43:10;;;;;;;0.52;0.52;;;26.50;81.10;;;;;;5059833;28;20322;-72
2023/08/07 12:45:37;;;;;;;0.55;0.55;;;26.10;78.40;;;;;;5061578;28;20301;-73
2023/08/07 12:48:04;;;;;;;0.57;0.57;;;25.50;78.60;;;;;;5058336;28;20228;-72
2023/08/07 12:50:31;;;;;;;0.77;0.70;;;25.20;77.80;;;;;;5059800;28;20209;-71
2023/08/07 12:52:58;;;;;;;0.80;0.80;;;25.00;77.10;;;;;;5060739;28;20275;-72
2023/08/07 12:55:26;;;;;;;0.70;0.70;;;25.40;76.70;;;;;;5060478;28;20218;-72